sensor_id;sensor_type;location;lat;lon;timestamp;pressure;altitude;pressure_sealevel;temperature;humidity
21401;BME280;18038;50.166;18.908;2023-09-08T00:01:19;98797.53;;;14.14;80.40
21401;BME280;18038;50.166;18.908;2023-09-08T00:04:28;98796.72;;;14.13;80.73
21401;BME280;18038;50.166;18.908;2023-09-08T00:07:44;98792.78;;;14.09;80.91
21401;BME280;18038;50.166;18.908;2023-09-08T00:11:16;98790.72;;;14.11;80.59
21401;BME280;18038;50.166;18.908;2023-09-08T00:14:25;98780.19;;;14.10;80.75
21401;BME280;18038;50.166;18.908;2023-09-08T00:17:32;98781.81;;;14.04;81.19
21401;BME280;18038;50.166;18.908;2023-09-08T00:20:41;98780.34;;;14.01;80.86
21401;BME280;18038;50.166;18.908;2023-09-08T00:23:48;98778.91;;;14.06;80.56
21401;BME280;18038;50.166;18.908;2023-09-08T00:27:03;98779.53;;;14.01;81.02
21401;BME280;18038;50.166;18.908;2023-09-08T00:30:27;98773.50;;;13.99;80.80
21401;BME280;18038;50.166;18.908;2023-09-08T00:33:35;98771.66;;;13.99;80.45
21401;BME280;18038;50.166;18.908;2023-09-08T00:36:44;98771.22;;;13.96;80.62
21401;BME280;18038;50.166;18.908;2023-09-08T00:39:53;98774.09;;;13.94;80.65
21401;BME280;18038;50.166;18.908;2023-09-08T00:43:10;98769.31;;;13.90;80.91
21401;BME280;18038;50.166;18.908;2023-09-08T00:46:20;98767.66;;;13.89;81.04
21401;BME280;18038;50.166;18.908;2023-09-08T00:49:29;98764.31;;;13.87;81.04
21401;BME280;18038;50.166;18.908;2023-09-08T00:52:37;98764.91;;;13.82;81.52
21401;BME280;18038;50.166;18.908;2023-09-08T00:55:45;98767.34;;;13.77;81.49
21401;BME280;18038;50.166;18.908;2023-09-08T00:58:56;98770.44;;;13.74;81.55
21401;BME280;18038;50.166;18.908;2023-09-08T01:02:16;98767.25;;;13.64;82.09
21401;BME280;18038;50.166;18.908;2023-09-08T01:05:24;98762.06;;;13.55;82.72
21401;BME280;18038;50.166;18.908;2023-09-08T01:08:32;98767.66;;;13.61;82.49
21401;BME280;18038;50.166;18.908;2023-09-08T01:11:41;98771.56;;;13.58;82.54
21401;BME280;18038;50.166;18.908;2023-09-08T01:14:53;98767.63;;;13.54;82.35
21401;BME280;18038;50.166;18.908;2023-09-08T01:18:02;98770.66;;;13.44;82.96
21401;BME280;18038;50.166;18.908;2023-09-08T01:21:39;98768.28;;;13.34;83.60
21401;BME280;18038;50.166;18.908;2023-09-08T01:25:21;98773.41;;;13.29;84.34
21401;BME280;18038;50.166;18.908;2023-09-08T01:28:32;98775.28;;;13.29;85.08
21401;BME280;18038;50.166;18.908;2023-09-08T01:31:42;98769.91;;;13.29;84.74
21401;BME280;18038;50.166;18.908;2023-09-08T01:34:50;98776.06;;;13.23;85.48
21401;BME280;18038;50.166;18.908;2023-09-08T01:37:59;98771.72;;;13.22;86.18
21401;BME280;18038;50.166;18.908;2023-09-08T01:41:10;98774.97;;;13.17;86.34
21401;BME280;18038;50.166;18.908;2023-09-08T01:44:19;98776.22;;;13.21;86.31
21401;BME280;18038;50.166;18.908;2023-09-08T01:47:29;98776.63;;;13.18;86.41
21401;BME280;18038;50.166;18.908;2023-09-08T01:50:37;98770.00;;;13.14;86.55
21401;BME280;18038;50.166;18.908;2023-09-08T01:53:45;98775.16;;;13.15;86.63
21401;BME280;18038;50.166;18.908;2023-09-08T01:56:56;98765.78;;;13.05;86.99
21401;BME280;18038;50.166;18.908;2023-09-08T02:00:04;98766.25;;;13.08;87.30
21401;BME280;18038;50.166;18.908;2023-09-08T02:03:16;98766.34;;;13.00;87.50
21401;BME280;18038;50.166;18.908;2023-09-08T02:06:23;98767.38;;;12.99;87.65
21401;BME280;18038;50.166;18.908;2023-09-08T02:09:32;98773.53;;;12.93;87.81
21401;BME280;18038;50.166;18.908;2023-09-08T02:12:43;98770.84;;;12.93;87.73
21401;BME280;18038;50.166;18.908;2023-09-08T02:15:51;98770.38;;;12.89;88.01
21401;BME280;18038;50.166;18.908;2023-09-08T02:18:59;98774.53;;;12.92;88.10
21401;BME280;18038;50.166;18.908;2023-09-08T02:22:07;98770.31;;;12.83;88.20
21401;BME280;18038;50.166;18.908;2023-09-08T02:25:14;98778.16;;;12.84;88.39
21401;BME280;18038;50.166;18.908;2023-09-08T02:28:25;98777.25;;;12.77;88.69
21401;BME280;18038;50.166;18.908;2023-09-08T02:31:34;98772.63;;;12.71;89.23
21401;BME280;18038;50.166;18.908;2023-09-08T02:34:43;98771.81;;;12.70;89.34
21401;BME280;18038;50.166;18.908;2023-09-08T02:37:53;98770.56;;;12.66;89.58
21401;BME280;18038;50.166;18.908;2023-09-08T02:41:02;98770.06;;;12.63;89.62
21401;BME280;18038;50.166;18.908;2023-09-08T02:44:12;98769.25;;;12.62;89.78
21401;BME280;18038;50.166;18.908;2023-09-08T02:47:21;98767.13;;;12.58;90.06
21401;BME280;18038;50.166;18.908;2023-09-08T02:50:29;98762.09;;;12.48;90.61
21401;BME280;18038;50.166;18.908;2023-09-08T02:53:38;98757.31;;;12.43;90.57
21401;BME280;18038;50.166;18.908;2023-09-08T02:56:45;98764.13;;;12.46;90.71
21401;BME280;18038;50.166;18.908;2023-09-08T02:59:58;98758.94;;;12.44;90.75
21401;BME280;18038;50.166;18.908;2023-09-08T03:03:05;98747.41;;;12.44;90.69
21401;BME280;18038;50.166;18.908;2023-09-08T03:06:15;98745.06;;;12.34;91.03
21401;BME280;18038;50.166;18.908;2023-09-08T03:09:26;98747.81;;;12.26;91.70
21401;BME280;18038;50.166;18.908;2023-09-08T03:12:34;98742.31;;;12.13;92.07
21401;BME280;18038;50.166;18.908;2023-09-08T03:15:44;98738.19;;;11.95;92.81
21401;BME280;18038;50.166;18.908;2023-09-08T03:18:52;98732.28;;;11.85;93.75
21401;BME280;18038;50.166;18.908;2023-09-08T03:22:00;98737.63;;;11.70;93.92
21401;BME280;18038;50.166;18.908;2023-09-08T03:25:08;98735.03;;;11.62;94.22
21401;BME280;18038;50.166;18.908;2023-09-08T03:28:18;98731.69;;;11.60;94.62
21401;BME280;18038;50.166;18.908;2023-09-08T03:31:30;98728.19;;;11.59;94.52
21401;BME280;18038;50.166;18.908;2023-09-08T03:34:38;98732.53;;;11.46;94.95
21401;BME280;18038;50.166;18.908;2023-09-08T03:37:47;98729.38;;;11.27;96.14
21401;BME280;18038;50.166;18.908;2023-09-08T03:40:54;98730.75;;;11.23;96.14
21401;BME280;18038;50.166;18.908;2023-09-08T03:44:03;98723.66;;;11.15;96.92
21401;BME280;18038;50.166;18.908;2023-09-08T03:47:13;98722.16;;;11.13;97.17
21401;BME280;18038;50.166;18.908;2023-09-08T03:50:21;98717.53;;;11.07;97.35
21401;BME280;18038;50.166;18.908;2023-09-08T03:53:31;98721.09;;;10.99;97.70
21401;BME280;18038;50.166;18.908;2023-09-08T03:56:40;98720.34;;;10.90;98.44
21401;BME280;18038;50.166;18.908;2023-09-08T03:59:47;98722.06;;;10.83;98.69
21401;BME280;18038;50.166;18.908;2023-09-08T04:02:57;98716.09;;;10.81;99.11
21401;BME280;18038;50.166;18.908;2023-09-08T04:06:05;98722.63;;;10.79;99.89
21401;BME280;18038;50.166;18.908;2023-09-08T04:09:14;98729.97;;;10.77;100.00
21401;BME280;18038;50.166;18.908;2023-09-08T04:12:21;98723.81;;;10.76;99.86
21401;BME280;18038;50.166;18.908;2023-09-08T04:15:29;98734.84;;;10.73;100.00
21401;BME280;18038;50.166;18.908;2023-09-08T04:18:39;98734.66;;;10.74;100.00
21401;BME280;18038;50.166;18.908;2023-09-08T04:21:47;98733.78;;;10.82;100.00
21401;BME280;18038;50.166;18.908;2023-09-08T04:24:55;98734.44;;;10.84;100.00
21401;BME280;18038;50.166;18.908;2023-09-08T04:28:10;98735.72;;;10.88;100.00
21401;BME280;18038;50.166;18.908;2023-09-08T04:31:19;98735.94;;;11.02;99.83
21401;BME280;18038;50.166;18.908;2023-09-08T04:34:30;98730.13;;;10.98;99.73
21401;BME280;18038;50.166;18.908;2023-09-08T04:37:38;98740.97;;;11.05;100.00
21401;BME280;18038;50.166;18.908;2023-09-08T04:40:49;98733.47;;;11.15;100.00
21401;BME280;18038;50.166;18.908;2023-09-08T04:43:57;98738.22;;;11.28;100.00
21401;BME280;18038;50.166;18.908;2023-09-08T04:47:08;98737.41;;;11.42;100.00
21401;BME280;18038;50.166;18.908;2023-09-08T04:50:19;98741.50;;;11.53;100.00
21401;BME280;18038;50.166;18.908;2023-09-08T04:53:30;98741.50;;;11.68;100.00
21401;BME280;18038;50.166;18.908;2023-09-08T04:56:38;98735.41;;;11.89;100.00
21401;BME280;18038;50.166;18.908;2023-09-08T04:59:47;98737.97;;;12.12;99.49
21401;BME280;18038;50.166;18.908;2023-09-08T05:02:54;98739.50;;;12.36;98.17
21401;BME280;18038;50.166;18.908;2023-09-08T05:06:05;98740.59;;;12.63;96.97
21401;BME280;18038;50.166;18.908;2023-09-08T05:09:13;98740.88;;;12.89;95.46
21401;BME280;18038;50.166;18.908;2023-09-08T05:12:21;98742.72;;;13.10;93.08
21401;BME280;18038;50.166;18.908;2023-09-08T05:15:29;98746.25;;;13.39;91.36
21401;BME280;18038;50.166;18.908;2023-09-08T05:18:40;98735.69;;;13.66;89.31
21401;BME280;18038;50.166;18.908;2023-09-08T05:21:53;98738.84;;;14.11;88.07
21401;BME280;18038;50.166;18.908;2023-09-08T05:25:03;98745.22;;;14.58;85.06
21401;BME280;18038;50.166;18.908;2023-09-08T05:28:11;98749.84;;;15.04;81.96
21401;BME280;18038;50.166;18.908;2023-09-08T05:31:20;98753.59;;;15.49;78.93
21401;BME280;18038;50.166;18.908;2023-09-08T05:34:28;98759.31;;;15.80;77.79
21401;BME280;18038;50.166;18.908;2023-09-08T05:37:38;98755.97;;;16.04;75.41
21401;BME280;18038;50.166;18.908;2023-09-08T05:40:46;98750.63;;;16.42;73.75
21401;BME280;18038;50.166;18.908;2023-09-08T05:43:54;98756.88;;;16.75;71.79
21401;BME280;18038;50.166;18.908;2023-09-08T05:47:01;98764.63;;;17.53;69.19
21401;BME280;18038;50.166;18.908;2023-09-08T05:50:10;98759.88;;;17.92;66.99
21401;BME280;18038;50.166;18.908;2023-09-08T05:53:20;98756.13;;;18.78;64.98
21401;BME280;18038;50.166;18.908;2023-09-08T05:56:31;98771.16;;;19.04;63.08
21401;BME280;18038;50.166;18.908;2023-09-08T05:59:38;98760.78;;;19.43;61.55
21401;BME280;18038;50.166;18.908;2023-09-08T06:02:47;98763.13;;;19.52;59.81
21401;BME280;18038;50.166;18.908;2023-09-08T06:05:55;98767.38;;;19.59;60.67
21401;BME280;18038;50.166;18.908;2023-09-08T06:09:06;98756.13;;;20.03;59.39
21401;BME280;18038;50.166;18.908;2023-09-08T06:12:16;98755.69;;;19.82;60.14
21401;BME280;18038;50.166;18.908;2023-09-08T06:15:25;98759.53;;;20.33;58.76
21401;BME280;18038;50.166;18.908;2023-09-08T06:18:33;98766.59;;;20.23;58.62
21401;BME280;18038;50.166;18.908;2023-09-08T06:21:49;98756.75;;;19.46;60.71
21401;BME280;18038;50.166;18.908;2023-09-08T06:25:00;98753.91;;;19.88;59.89
21401;BME280;18038;50.166;18.908;2023-09-08T06:28:08;98764.28;;;20.84;58.33
21401;BME280;18038;50.166;18.908;2023-09-08T06:31:16;98760.25;;;20.29;59.58
21401;BME280;18038;50.166;18.908;2023-09-08T06:34:24;98765.03;;;20.67;57.91
21401;BME280;18038;50.166;18.908;2023-09-08T06:37:35;98770.72;;;20.66;57.56
21401;BME280;18038;50.166;18.908;2023-09-08T06:40:47;98764.09;;;20.73;57.27
21401;BME280;18038;50.166;18.908;2023-09-08T06:43:57;98767.22;;;20.53;57.03
21401;BME280;18038;50.166;18.908;2023-09-08T06:47:12;98769.81;;;19.96;58.50
21401;BME280;18038;50.166;18.908;2023-09-08T06:50:19;98761.22;;;19.99;59.51
21401;BME280;18038;50.166;18.908;2023-09-08T06:53:28;98763.88;;;20.23;59.50
21401;BME280;18038;50.166;18.908;2023-09-08T06:56:39;98769.84;;;21.22;56.53
21401;BME280;18038;50.166;18.908;2023-09-08T06:59:48;98764.66;;;21.38;55.46
21401;BME280;18038;50.166;18.908;2023-09-08T07:02:58;98768.09;;;21.84;54.30
21401;BME280;18038;50.166;18.908;2023-09-08T07:06:07;98779.56;;;21.52;54.71
21401;BME280;18038;50.166;18.908;2023-09-08T07:09:15;98773.66;;;20.64;56.20
21401;BME280;18038;50.166;18.908;2023-09-08T07:12:26;98776.94;;;20.49;56.93
21401;BME280;18038;50.166;18.908;2023-09-08T07:15:34;98776.44;;;20.81;56.12
21401;BME280;18038;50.166;18.908;2023-09-08T07:18:42;98776.25;;;20.99;55.14
21401;BME280;18038;50.166;18.908;2023-09-08T07:21:52;98775.41;;;20.42;57.17
21401;BME280;18038;50.166;18.908;2023-09-08T07:25:10;98775.69;;;20.17;58.79
21401;BME280;18038;50.166;18.908;2023-09-08T07:28:21;98770.53;;;20.55;56.61
21401;BME280;18038;50.166;18.908;2023-09-08T07:31:31;98777.50;;;20.80;55.58
21401;BME280;18038;50.166;18.908;2023-09-08T07:34:43;98777.09;;;21.17;54.64
21401;BME280;18038;50.166;18.908;2023-09-08T07:37:52;98771.06;;;20.98;53.95
21401;BME280;18038;50.166;18.908;2023-09-08T07:41:01;98772.81;;;20.47;55.19
21401;BME280;18038;50.166;18.908;2023-09-08T07:44:13;98769.59;;;20.50;55.39
21401;BME280;18038;50.166;18.908;2023-09-08T07:47:20;98766.72;;;21.31;54.57
21401;BME280;18038;50.166;18.908;2023-09-08T07:50:28;98768.28;;;21.60;52.79
21401;BME280;18038;50.166;18.908;2023-09-08T07:53:36;98761.63;;;21.34;53.13
21401;BME280;18038;50.166;18.908;2023-09-08T07:56:44;98770.94;;;21.72;53.02
21401;BME280;18038;50.166;18.908;2023-09-08T07:59:54;98774.09;;;22.03;52.59
21401;BME280;18038;50.166;18.908;2023-09-08T08:03:03;98769.50;;;22.47;50.79
21401;BME280;18038;50.166;18.908;2023-09-08T08:06:11;98769.22;;;22.71;50.64
21401;BME280;18038;50.166;18.908;2023-09-08T08:09:19;98763.69;;;23.15;49.77
21401;BME280;18038;50.166;18.908;2023-09-08T08:12:26;98765.91;;;23.55;49.03
21401;BME280;18038;50.166;18.908;2023-09-08T08:15:38;98761.53;;;24.44;46.67
21401;BME280;18038;50.166;18.908;2023-09-08T08:18:48;98761.31;;;24.03;46.73
21401;BME280;18038;50.166;18.908;2023-09-08T08:21:57;98756.09;;;24.55;45.30
21401;BME280;18038;50.166;18.908;2023-09-08T08:25:05;98761.38;;;24.14;45.91
21401;BME280;18038;50.166;18.908;2023-09-08T08:28:19;98759.59;;;23.87;46.20
21401;BME280;18038;50.166;18.908;2023-09-08T08:31:30;98760.81;;;23.32;47.85
21401;BME280;18038;50.166;18.908;2023-09-08T08:34:39;98761.00;;;23.57;48.13
21401;BME280;18038;50.166;18.908;2023-09-08T08:37:46;98759.13;;;24.68;45.58
21401;BME280;18038;50.166;18.908;2023-09-08T08:40:54;98766.88;;;25.48;44.61
21401;BME280;18038;50.166;18.908;2023-09-08T08:44:08;98757.03;;;25.22;43.49
21401;BME280;18038;50.166;18.908;2023-09-08T08:47:19;98758.34;;;24.78;44.59
21401;BME280;18038;50.166;18.908;2023-09-08T08:50:27;98757.84;;;25.27;43.37
21401;BME280;18038;50.166;18.908;2023-09-08T08:53:37;98756.91;;;24.50;44.12
21401;BME280;18038;50.166;18.908;2023-09-08T08:56:47;98755.31;;;24.69;43.43
21401;BME280;18038;50.166;18.908;2023-09-08T08:59:57;98746.94;;;24.91;43.56
21401;BME280;18038;50.166;18.908;2023-09-08T09:03:09;98745.00;;;24.14;44.25
21401;BME280;18038;50.166;18.908;2023-09-08T09:06:19;98751.88;;;24.26;44.77
21401;BME280;18038;50.166;18.908;2023-09-08T09:09:28;98748.03;;;25.06;43.79
21401;BME280;18038;50.166;18.908;2023-09-08T09:12:37;98750.22;;;25.45;41.73
21401;BME280;18038;50.166;18.908;2023-09-08T09:15:45;98739.78;;;25.47;42.03
21401;BME280;18038;50.166;18.908;2023-09-08T09:18:58;98741.97;;;25.70;40.57
21401;BME280;18038;50.166;18.908;2023-09-08T09:22:07;98738.03;;;26.22;40.82
21401;BME280;18038;50.166;18.908;2023-09-08T09:25:21;98733.97;;;27.09;38.69
21401;BME280;18038;50.166;18.908;2023-09-08T09:28:30;98742.38;;;26.29;39.12
21401;BME280;18038;50.166;18.908;2023-09-08T09:31:49;98740.63;;;25.68;40.05
21401;BME280;18038;50.166;18.908;2023-09-08T09:35:01;98735.66;;;25.90;39.96
21401;BME280;18038;50.166;18.908;2023-09-08T09:38:10;98733.97;;;26.64;39.49
21401;BME280;18038;50.166;18.908;2023-09-08T09:41:18;98731.34;;;26.94;38.63
21401;BME280;18038;50.166;18.908;2023-09-08T09:44:30;98721.59;;;26.12;37.67
21401;BME280;18038;50.166;18.908;2023-09-08T09:47:38;98734.06;;;25.38;39.61
21401;BME280;18038;50.166;18.908;2023-09-08T09:50:50;98726.16;;;25.57;38.77
21401;BME280;18038;50.166;18.908;2023-09-08T09:53:58;98721.22;;;25.64;38.70
21401;BME280;18038;50.166;18.908;2023-09-08T09:57:06;98730.13;;;26.65;37.09
21401;BME280;18038;50.166;18.908;2023-09-08T10:00:24;98726.00;;;26.68;36.24
21401;BME280;18038;50.166;18.908;2023-09-08T10:03:42;98716.13;;;26.22;37.00
21401;BME280;18038;50.166;18.908;2023-09-08T10:07:01;98716.75;;;25.94;36.74
21401;BME280;18038;50.166;18.908;2023-09-08T10:10:10;98713.66;;;26.71;36.45
21401;BME280;18038;50.166;18.908;2023-09-08T10:13:27;98715.00;;;26.23;35.64
21401;BME280;18038;50.166;18.908;2023-09-08T10:16:40;98707.28;;;26.36;35.98
21401;BME280;18038;50.166;18.908;2023-09-08T10:19:57;98709.28;;;26.69;34.93
21401;BME280;18038;50.166;18.908;2023-09-08T10:23:23;98697.03;;;25.97;36.68
21401;BME280;18038;50.166;18.908;2023-09-08T10:26:42;98710.84;;;25.25;37.29
21401;BME280;18038;50.166;18.908;2023-09-08T10:29:53;98716.84;;;25.53;37.47
21401;BME280;18038;50.166;18.908;2023-09-08T10:33:03;98704.56;;;26.36;37.49
21401;BME280;18038;50.166;18.908;2023-09-08T10:36:13;98697.78;;;26.13;37.00
21401;BME280;18038;50.166;18.908;2023-09-08T10:39:32;98706.81;;;26.68;34.69
21401;BME280;18038;50.166;18.908;2023-09-08T10:42:44;98705.97;;;26.28;35.00
21401;BME280;18038;50.166;18.908;2023-09-08T10:45:51;98701.41;;;25.98;34.49
21401;BME280;18038;50.166;18.908;2023-09-08T10:49:04;98700.66;;;26.47;34.10
21401;BME280;18038;50.166;18.908;2023-09-08T10:52:16;98702.91;;;26.40;34.29
21401;BME280;18038;50.166;18.908;2023-09-08T10:55:40;98702.47;;;26.07;35.90
21401;BME280;18038;50.166;18.908;2023-09-08T10:58:59;98704.00;;;25.58;35.16
21401;BME280;18038;50.166;18.908;2023-09-08T11:02:34;98696.06;;;25.62;34.63
21401;BME280;18038;50.166;18.908;2023-09-08T11:05:43;98699.00;;;25.86;34.47
21401;BME280;18038;50.166;18.908;2023-09-08T11:08:51;98689.94;;;25.96;33.76
21401;BME280;18038;50.166;18.908;2023-09-08T11:12:05;98683.50;;;25.30;34.57
21401;BME280;18038;50.166;18.908;2023-09-08T11:15:15;98683.50;;;25.41;34.69
21401;BME280;18038;50.166;18.908;2023-09-08T11:18:26;98686.53;;;25.29;34.81
21401;BME280;18038;50.166;18.908;2023-09-08T11:21:34;98675.84;;;25.43;35.90
21401;BME280;18038;50.166;18.908;2023-09-08T11:24:45;98685.94;;;25.52;34.66
21401;BME280;18038;50.166;18.908;2023-09-08T11:27:55;98673.81;;;25.89;35.55
21401;BME280;18038;50.166;18.908;2023-09-08T11:31:04;98674.13;;;25.77;34.68
21401;BME280;18038;50.166;18.908;2023-09-08T11:34:12;98673.13;;;25.07;33.87
21401;BME280;18038;50.166;18.908;2023-09-08T11:37:20;98669.88;;;25.00;34.97
21401;BME280;18038;50.166;18.908;2023-09-08T11:40:30;98664.91;;;24.71;35.29
21401;BME280;18038;50.166;18.908;2023-09-08T11:43:41;98674.06;;;24.19;35.43
21401;BME280;18038;50.166;18.908;2023-09-08T11:46:50;98668.44;;;24.36;35.00
21401;BME280;18038;50.166;18.908;2023-09-08T11:49:58;98668.06;;;24.22;34.50
21401;BME280;18038;50.166;18.908;2023-09-08T11:53:06;98663.91;;;23.99;35.96
21401;BME280;18038;50.166;18.908;2023-09-08T11:56:13;98667.59;;;24.35;36.78
21401;BME280;18038;50.166;18.908;2023-09-08T11:59:24;98669.50;;;24.40;34.51
21401;BME280;18038;50.166;18.908;2023-09-08T12:02:36;98659.16;;;24.72;34.30
21401;BME280;18038;50.166;18.908;2023-09-08T12:05:51;98655.66;;;25.03;35.31
21401;BME280;18038;50.166;18.908;2023-09-08T12:09:01;98654.28;;;25.26;35.80
21401;BME280;18038;50.166;18.908;2023-09-08T12:12:11;98658.34;;;25.54;36.87
21401;BME280;18038;50.166;18.908;2023-09-08T12:15:33;98652.34;;;25.31;36.38
21401;BME280;18038;50.166;18.908;2023-09-08T12:18:53;98650.94;;;25.49;36.16
21401;BME280;18038;50.166;18.908;2023-09-08T12:22:02;98649.06;;;25.55;36.99
21401;BME280;18038;50.166;18.908;2023-09-08T12:25:12;98634.25;;;25.51;37.36
21401;BME280;18038;50.166;18.908;2023-09-08T12:28:21;98643.03;;;25.43;36.98
21401;BME280;18038;50.166;18.908;2023-09-08T12:31:32;98641.94;;;25.38;37.12
21401;BME280;18038;50.166;18.908;2023-09-08T12:34:43;98636.53;;;26.03;37.20
21401;BME280;18038;50.166;18.908;2023-09-08T12:37:59;98628.41;;;26.43;37.04
21401;BME280;18038;50.166;18.908;2023-09-08T12:41:17;98629.81;;;26.35;36.21
21401;BME280;18038;50.166;18.908;2023-09-08T12:44:26;98626.44;;;25.94;35.80
21401;BME280;18038;50.166;18.908;2023-09-08T12:47:36;98623.78;;;25.78;37.26
21401;BME280;18038;50.166;18.908;2023-09-08T12:50:44;98630.69;;;25.66;37.58
21401;BME280;18038;50.166;18.908;2023-09-08T12:53:56;98621.50;;;25.21;38.32
21401;BME280;18038;50.166;18.908;2023-09-08T12:57:04;98624.25;;;25.10;38.67
21401;BME280;18038;50.166;18.908;2023-09-08T13:00:13;98627.25;;;24.93;38.08
21401;BME280;18038;50.166;18.908;2023-09-08T13:03:24;98621.22;;;24.50;37.62
21401;BME280;18038;50.166;18.908;2023-09-08T13:06:32;98628.84;;;24.28;35.97
21401;BME280;18038;50.166;18.908;2023-09-08T13:09:41;98620.06;;;24.21;37.41
21401;BME280;18038;50.166;18.908;2023-09-08T13:12:48;98624.41;;;24.17;36.56
21401;BME280;18038;50.166;18.908;2023-09-08T13:15:57;98612.63;;;24.01;35.96
21401;BME280;18038;50.166;18.908;2023-09-08T13:19:07;98608.03;;;24.22;37.29
21401;BME280;18038;50.166;18.908;2023-09-08T13:22:15;98608.53;;;24.03;36.07
21401;BME280;18038;50.166;18.908;2023-09-08T13:25:22;98603.34;;;23.92;35.48
21401;BME280;18038;50.166;18.908;2023-09-08T13:28:30;98606.97;;;24.23;35.32
21401;BME280;18038;50.166;18.908;2023-09-08T13:31:38;98597.13;;;24.22;36.71
21401;BME280;18038;50.166;18.908;2023-09-08T13:34:49;98596.06;;;24.38;35.60
21401;BME280;18038;50.166;18.908;2023-09-08T13:37:57;98592.72;;;24.00;35.38
21401;BME280;18038;50.166;18.908;2023-09-08T13:41:07;98597.59;;;23.88;36.12
21401;BME280;18038;50.166;18.908;2023-09-08T13:44:14;98587.25;;;23.95;37.27
21401;BME280;18038;50.166;18.908;2023-09-08T13:47:23;98582.09;;;23.99;36.32
21401;BME280;18038;50.166;18.908;2023-09-08T13:50:34;98594.06;;;23.98;36.49
21401;BME280;18038;50.166;18.908;2023-09-08T13:53:44;98587.53;;;23.99;36.87
21401;BME280;18038;50.166;18.908;2023-09-08T13:56:59;98587.50;;;23.89;35.89
21401;BME280;18038;50.166;18.908;2023-09-08T14:00:13;98589.19;;;24.10;36.52
21401;BME280;18038;50.166;18.908;2023-09-08T14:03:26;98579.63;;;24.07;36.87
21401;BME280;18038;50.166;18.908;2023-09-08T14:06:55;98576.63;;;23.94;37.36
21401;BME280;18038;50.166;18.908;2023-09-08T14:10:10;98582.09;;;24.04;37.40
21401;BME280;18038;50.166;18.908;2023-09-08T14:13:31;98575.81;;;24.08;36.74
21401;BME280;18038;50.166;18.908;2023-09-08T14:16:39;98572.84;;;24.15;37.15
21401;BME280;18038;50.166;18.908;2023-09-08T14:19:47;98565.72;;;23.99;38.29
21401;BME280;18038;50.166;18.908;2023-09-08T14:22:57;98568.75;;;24.18;38.06
21401;BME280;18038;50.166;18.908;2023-09-08T14:26:05;98560.31;;;24.35;37.99
21401;BME280;18038;50.166;18.908;2023-09-08T14:29:13;98563.28;;;24.13;37.90
21401;BME280;18038;50.166;18.908;2023-09-08T14:32:21;98566.00;;;24.07;38.65
21401;BME280;18038;50.166;18.908;2023-09-08T14:35:28;98558.88;;;23.91;39.32
21401;BME280;18038;50.166;18.908;2023-09-08T14:38:39;98559.44;;;24.03;39.28
21401;BME280;18038;50.166;18.908;2023-09-08T14:41:47;98556.16;;;23.96;39.31
21401;BME280;18038;50.166;18.908;2023-09-08T14:44:57;98555.84;;;23.88;39.54
21401;BME280;18038;50.166;18.908;2023-09-08T14:48:05;98552.28;;;23.82;39.93
21401;BME280;18038;50.166;18.908;2023-09-08T14:51:13;98554.50;;;23.90;39.70
21401;BME280;18038;50.166;18.908;2023-09-08T14:54:24;98549.06;;;23.95;39.66
21401;BME280;18038;50.166;18.908;2023-09-08T14:57:33;98556.16;;;23.91;40.32
21401;BME280;18038;50.166;18.908;2023-09-08T15:00:40;98550.38;;;23.72;40.50
21401;BME280;18038;50.166;18.908;2023-09-08T15:03:54;98545.66;;;23.57;41.44
21401;BME280;18038;50.166;18.908;2023-09-08T15:07:15;98545.19;;;23.76;40.82
21401;BME280;18038;50.166;18.908;2023-09-08T15:10:26;98546.59;;;23.83;40.59
21401;BME280;18038;50.166;18.908;2023-09-08T15:13:37;98551.75;;;23.90;40.07
21401;BME280;18038;50.166;18.908;2023-09-08T15:16:46;98544.91;;;23.77;40.63
21401;BME280;18038;50.166;18.908;2023-09-08T15:19:53;98543.00;;;23.68;40.05
21401;BME280;18038;50.166;18.908;2023-09-08T15:23:03;98546.81;;;23.77;40.34
21401;BME280;18038;50.166;18.908;2023-09-08T15:26:13;98544.63;;;23.69;40.10
21401;BME280;18038;50.166;18.908;2023-09-08T15:29:45;98545.44;;;23.69;40.56
21401;BME280;18038;50.166;18.908;2023-09-08T15:32:53;98540.41;;;23.46;40.64
21401;BME280;18038;50.166;18.908;2023-09-08T15:36:08;98545.28;;;23.33;40.94
21401;BME280;18038;50.166;18.908;2023-09-08T15:39:16;98535.50;;;23.42;41.02
21401;BME280;18038;50.166;18.908;2023-09-08T15:42:27;98536.34;;;23.48;40.86
21401;BME280;18038;50.166;18.908;2023-09-08T15:45:34;98535.56;;;23.58;40.65
21401;BME280;18038;50.166;18.908;2023-09-08T15:48:43;98533.09;;;23.51;40.89
21401;BME280;18038;50.166;18.908;2023-09-08T15:51:50;98530.09;;;23.58;42.13
21401;BME280;18038;50.166;18.908;2023-09-08T15:55:18;98535.50;;;23.42;41.78
21401;BME280;18038;50.166;18.908;2023-09-08T15:58:28;98527.28;;;23.32;41.65
21401;BME280;18038;50.166;18.908;2023-09-08T16:01:36;98534.91;;;23.30;41.07
21401;BME280;18038;50.166;18.908;2023-09-08T16:04:43;98528.09;;;23.28;41.37
21401;BME280;18038;50.166;18.908;2023-09-08T16:07:52;98525.34;;;23.23;41.81
21401;BME280;18038;50.166;18.908;2023-09-08T16:11:00;98521.47;;;23.13;42.66
21401;BME280;18038;50.166;18.908;2023-09-08T16:14:11;98517.66;;;23.09;42.23
21401;BME280;18038;50.166;18.908;2023-09-08T16:17:22;98517.63;;;23.04;42.82
21401;BME280;18038;50.166;18.908;2023-09-08T16:20:31;98515.91;;;22.93;42.69
21401;BME280;18038;50.166;18.908;2023-09-08T16:23:38;98514.84;;;22.94;42.80
21401;BME280;18038;50.166;18.908;2023-09-08T16:26:47;98504.38;;;22.81;42.98
21401;BME280;18038;50.166;18.908;2023-09-08T16:29:57;98510.91;;;22.74;42.78
21401;BME280;18038;50.166;18.908;2023-09-08T16:33:05;98507.31;;;22.74;43.05
21401;BME280;18038;50.166;18.908;2023-09-08T16:36:12;98508.47;;;22.78;42.59